Waco, Mc Gregor Executive Airport (KPWG)

NameMc Gregor Executive Airport
CityWaco
CountryUnited States
ICAOKPWG
IATA
Altitude180 m
CoordinatesGoogle Map
Live Air TrafficLiveATC.net
METARKPWG 251656Z AUTO 01016G20KT 10SM CLR 21/09 A3013 RMK AO2 SLP197 T02110094 $
2020-04-25 16:56:00 Wind: North (10°) 8.23 m/s - Visibility: 16093.4 m - Temperature: 21 °C - Dew point: 9 °C - Humidity: 46.3% - Pressure: 1020.32 hPa
Statistics

The table below shows the detailed information of all flights to/from Waco, Mc Gregor Executive Airport (KPWG).